Time;durP1;ratioP1;P1;durP2;ratioP2;P2;SDS_P1;SDS_P2;PMS_P1;PMS_P2;Temp;Humidity;BMP_temperature;BMP_pressure;BME280_temperature;BME280_humidity;BME280_pressure;Samples;Min_cycle;Max_cycle;Signal;HPM_P1;HPM_P2
2021/08/22 00:01:31;;;;;;;13.90;11.80;;;18.90;99.90;;;;;;5055620;28;20346;-86
2021/08/22 00:03:56;;;;;;;13.20;11.90;;;18.90;99.90;;;;;;5037290;28;20036;-85
2021/08/22 00:06:22;;;;;;;12.55;11.25;;;18.80;99.90;;;;;;5037119;28;20044;-85
2021/08/22 00:08:49;;;;;;;12.15;10.93;;;18.80;99.90;;;;;;5037439;28;20033;-85
2021/08/22 00:11:14;;;;;;;12.43;10.80;;;18.80;99.90;;;;;;5036787;28;20029;-85
2021/08/22 00:13:40;;;;;;;12.18;10.63;;;18.80;99.90;;;;;;5036819;28;20183;-85
2021/08/22 00:16:07;;;;;;;11.82;10.35;;;18.80;99.90;;;;;;5036348;28;20025;-85
2021/08/22 00:18:33;;;;;;;11.70;9.98;;;18.80;99.90;;;;;;5036662;28;20358;-87
2021/08/22 00:20:58;;;;;;;12.23;10.25;;;18.80;99.90;;;;;;5036644;28;20032;-87
2021/08/22 00:23:24;;;;;;;11.70;10.13;;;18.80;99.90;;;;;;5053950;28;20033;-86
2021/08/22 00:25:50;;;;;;;11.20;10.00;;;18.80;99.90;;;;;;5036663;28;20033;-86
2021/08/22 00:28:16;;;;;;;11.73;9.38;;;18.80;99.90;;;;;;5048151;28;20431;-86
2021/08/22 00:30:42;;;;;;;11.35;10.15;;;18.80;99.90;;;;;;5055679;28;20029;-86
2021/08/22 00:33:07;;;;;;;11.45;10.05;;;18.90;99.90;;;;;;5055560;28;20033;-87
2021/08/22 00:35:36;;;;;;;12.18;10.90;;;18.90;99.90;;;;;;5054412;28;20082;-86
2021/08/22 00:38:02;;;;;;;13.68;12.23;;;18.90;99.90;;;;;;5055460;28;20075;-84
2021/08/22 00:40:28;;;;;;;13.88;12.38;;;18.80;99.90;;;;;;5053600;28;20020;-86
2021/08/22 00:42:53;;;;;;;15.00;13.18;;;18.80;99.90;;;;;;5055346;28;20468;-87
2021/08/22 00:45:20;;;;;;;12.38;10.98;;;18.80;99.90;;;;;;5055918;28;20378;-86
2021/08/22 00:47:49;;;;;;;14.18;12.00;;;18.80;99.90;;;;;;5074573;28;20046;-86
2021/08/22 00:50:16;;;;;;;13.07;11.43;;;18.80;99.90;;;;;;5056696;28;20469;-85
2021/08/22 00:52:42;;;;;;;13.57;12.18;;;18.80;99.90;;;;;;5056301;28;20063;-85
2021/08/22 00:55:09;;;;;;;13.63;12.15;;;18.80;99.90;;;;;;5056852;28;20031;-86
2021/08/22 00:57:35;;;;;;;13.32;11.73;;;18.80;99.90;;;;;;5056778;28;20115;-86
2021/08/22 01:00:05;;;;;;;13.60;12.15;;;18.90;99.90;;;;;;5056699;28;20028;-85
2021/08/22 01:02:43;;;;;;;14.93;13.30;;;18.90;99.90;;;;;;5056600;28;20074;-86
2021/08/22 01:05:17;;;;;;;17.38;15.07;;;18.90;99.90;;;;;;5073987;28;20441;-86
2021/08/22 01:07:54;;;;;;;15.40;13.77;;;18.90;99.90;;;;;;5056591;28;20025;-86
2021/08/22 01:10:24;;;;;;;15.48;13.85;;;18.90;99.90;;;;;;5056393;28;20067;-86
2021/08/22 01:13:00;;;;;;;16.02;14.32;;;18.90;99.90;;;;;;5056427;28;20101;-85
2021/08/22 01:15:30;;;;;;;17.17;15.35;;;19.00;99.90;;;;;;5074278;28;20033;-85
2021/08/22 01:17:56;;;;;;;18.58;16.25;;;18.90;99.90;;;;;;5056379;28;20024;-86
2021/08/22 01:20:27;;;;;;;16.88;15.15;;;18.90;99.90;;;;;;5056220;28;20028;-85
2021/08/22 01:22:55;;;;;;;18.05;16.02;;;18.90;99.90;;;;;;5056134;28;20037;-85
2021/08/22 01:25:21;;;;;;;17.73;15.82;;;18.80;99.90;;;;;;5056191;28;20027;-87
2021/08/22 01:27:48;;;;;;;15.18;13.27;;;18.80;99.90;;;;;;5056226;28;20468;-86
2021/08/22 01:30:17;;;;;;;18.85;16.85;;;18.80;99.90;;;;;;5056059;28;20453;-86
2021/08/22 01:32:45;;;;;;;19.70;17.60;;;18.90;99.90;;;;;;5056018;28;20460;-87
2021/08/22 01:35:18;;;;;;;21.00;18.80;;;18.80;99.90;;;;;;5055974;28;20468;-86
2021/08/22 01:37:46;;;;;;;17.83;15.98;;;18.80;99.90;;;;;;5056027;28;20020;-86
2021/08/22 01:40:15;;;;;;;18.25;16.10;;;18.80;99.90;;;;;;5055718;28;20537;-87
2021/08/22 01:42:42;;;;;;;19.25;17.20;;;18.80;99.90;;;;;;5055797;28;20028;-86
2021/08/22 01:45:13;;;;;;;20.30;18.15;;;18.80;99.90;;;;;;5073694;28;20076;-86
2021/08/22 01:47:43;;;;;;;20.90;18.73;;;18.80;99.90;;;;;;5055790;28;20491;-85
2021/08/22 01:50:11;;;;;;;21.77;19.65;;;18.70;99.90;;;;;;5055959;28;20107;-86
2021/08/22 01:52:37;;;;;;;19.50;17.38;;;18.80;99.90;;;;;;5055726;28;20054;-86
2021/08/22 01:55:07;;;;;;;17.48;15.70;;;18.70;99.90;;;;;;5073725;28;20035;-85
2021/08/22 01:57:53;;;;;;;16.15;14.13;;;18.70;99.90;;;;;;5055649;28;20059;-86
2021/08/22 02:00:18;;;;;;;13.45;12.05;;;18.70;99.90;;;;;;5055159;28;20032;-86
2021/08/22 02:03:04;;;;;;;13.10;11.65;;;18.70;99.90;;;;;;5055615;28;20055;-85
2021/08/22 02:05:36;;;;;;;12.32;10.07;;;18.70;99.90;;;;;;5055575;28;20066;-86
2021/08/22 02:08:13;;;;;;;12.73;11.43;;;18.70;99.90;;;;;;5055759;28;20023;-86
2021/08/22 02:10:47;;;;;;;12.10;10.38;;;18.70;99.90;;;;;;5055419;28;20031;-86
2021/08/22 02:13:15;;;;;;;12.00;10.52;;;18.70;99.90;;;;;;5055436;28;20063;-86
2021/08/22 02:15:42;;;;;;;13.25;11.80;;;18.70;99.90;;;;;;5073232;28;20025;-86
2021/08/22 02:18:15;;;;;;;14.82;13.32;;;18.70;99.90;;;;;;5054645;28;20032;-86
2021/08/22 02:20:44;;;;;;;17.60;15.23;;;18.70;99.90;;;;;;5055533;28;20052;-87
2021/08/22 02:23:10;;;;;;;13.68;12.27;;;18.70;99.90;;;;;;5055308;28;20036;-86
2021/08/22 02:25:36;;;;;;;13.13;11.73;;;18.60;99.90;;;;;;5055323;28;20483;-87
2021/08/22 02:28:02;;;;;;;15.10;13.15;;;18.70;99.90;;;;;;5073268;28;20029;-87
2021/08/22 02:30:36;;;;;;;16.30;14.27;;;18.70;99.90;;;;;;5055333;28;20480;-87
2021/08/22 02:33:06;;;;;;;16.25;14.55;;;18.60;99.90;;;;;;5055267;28;20028;-86
2021/08/22 02:35:33;;;;;;;16.00;14.30;;;18.60;99.90;;;;;;5055184;28;20053;-86
2021/08/22 02:37:59;;;;;;;17.73;15.82;;;18.50;99.90;;;;;;5055225;28;20020;-86
2021/08/22 02:40:25;;;;;;;16.17;14.48;;;18.50;99.90;;;;;;5054969;28;20029;-87
2021/08/22 02:42:51;;;;;;;20.08;17.75;;;18.50;99.90;;;;;;5054873;28;20027;-86
2021/08/22 02:45:16;;;;;;;19.60;17.50;;;18.40;99.90;;;;;;5054752;28;20049;-85
2021/08/22 02:47:42;;;;;;;19.88;17.88;;;18.40;99.90;;;;;;5072888;28;20028;-86
2021/08/22 02:50:08;;;;;;;19.50;17.40;;;18.40;99.90;;;;;;5054922;28;20482;-86
2021/08/22 02:52:34;;;;;;;19.25;17.23;;;18.30;99.90;;;;;;5072911;28;20349;-86
2021/08/22 02:54:59;;;;;;;22.83;19.83;;;18.30;99.90;;;;;;5055129;28;20142;-85
2021/08/22 02:57:25;;;;;;;19.30;17.15;;;18.20;99.90;;;;;;5054704;28;20468;-86
2021/08/22 02:59:51;;;;;;;17.23;15.15;;;18.10;99.90;;;;;;5072819;28;20358;-86
2021/08/22 03:02:16;;;;;;;20.40;18.05;;;18.10;99.90;;;;;;5054723;28;20116;-86
2021/08/22 03:04:42;;;;;;;17.45;15.63;;;18.00;99.90;;;;;;5072895;28;20074;-86
2021/08/22 03:07:07;;;;;;;16.15;14.32;;;18.00;99.90;;;;;;5054906;28;20035;-86
2021/08/22 03:09:33;;;;;;;15.48;13.75;;;17.90;99.90;;;;;;5054897;28;20021;-87
2021/08/22 03:11:59;;;;;;;15.00;13.00;;;17.90;99.90;;;;;;5054771;28;20395;-86
2021/08/22 03:14:24;;;;;;;14.48;12.68;;;17.90;99.90;;;;;;5054923;28;20467;-87
2021/08/22 03:16:50;;;;;;;15.98;14.27;;;17.90;99.90;;;;;;5054887;28;20349;-86
2021/08/22 03:19:16;;;;;;;18.52;16.35;;;17.90;99.90;;;;;;5054879;28;20119;-85
2021/08/22 03:21:44;;;;;;;19.70;17.00;;;18.00;99.90;;;;;;5055077;28;20035;-86
2021/08/22 03:24:10;;;;;;;18.90;15.68;;;17.90;99.90;;;;;;5054639;28;20096;-86
2021/08/22 03:26:36;;;;;;;18.92;16.88;;;18.00;99.90;;;;;;5054546;28;20082;-87
2021/08/22 03:29:02;;;;;;;19.35;15.48;;;18.00;99.90;;;;;;5055835;28;20032;-86
2021/08/22 03:31:27;;;;;;;18.05;14.98;;;18.00;99.90;;;;;;5058248;28;20448;-86
2021/08/22 03:33:53;;;;;;;20.55;17.95;;;18.00;99.90;;;;;;5076122;28;20073;-87
2021/08/22 03:36:19;;;;;;;22.23;19.20;;;18.00;99.90;;;;;;5058608;28;20024;-88
2021/08/22 03:38:45;;;;;;;22.20;18.75;;;18.00;99.90;;;;;;5058396;28;20028;-86
2021/08/22 03:41:11;;;;;;;24.63;20.50;;;18.10;99.90;;;;;;5058222;28;20021;-86
2021/08/22 03:43:37;;;;;;;24.15;20.13;;;18.00;99.90;;;;;;5057785;28;20529;-86
2021/08/22 03:46:04;;;;;;;23.02;19.13;;;18.00;99.90;;;;;;5058002;28;20052;-86
2021/08/22 03:48:29;;;;;;;22.23;18.50;;;18.00;99.90;;;;;;5057914;28;20027;-86
2021/08/22 03:50:55;;;;;;;21.52;18.33;;;18.00;99.90;;;;;;5058006;28;20111;-86
2021/08/22 03:53:20;;;;;;;24.33;19.08;;;18.00;99.90;;;;;;5057986;28;20088;-86
2021/08/22 03:55:46;;;;;;;22.67;18.52;;;18.00;99.90;;;;;;5057708;28;20050;-86
2021/08/22 03:58:12;;;;;;;27.17;20.67;;;18.00;99.90;;;;;;5058081;28;20032;-86
2021/08/22 04:00:38;;;;;;;24.00;19.17;;;17.90;99.90;;;;;;5058041;28;20081;-86
2021/08/22 04:03:04;;;;;;;23.17;18.65;;;17.90;99.90;;;;;;5057897;28;20119;-86
2021/08/22 04:05:29;;;;;;;23.52;18.83;;;17.90;99.90;;;;;;5057078;28;20166;-87
2021/08/22 04:07:57;;;;;;;23.65;17.60;;;17.90;99.90;;;;;;5056658;28;20017;-87
2021/08/22 04:10:25;;;;;;;30.15;23.30;;;17.90;99.90;;;;;;5056501;28;20389;-86
2021/08/22 04:12:51;;;;;;;27.52;20.92;;;17.90;99.90;;;;;;5056692;28;20115;-86
2021/08/22 04:15:17;;;;;;;23.75;19.02;;;17.90;99.90;;;;;;5056801;28;20056;-86
2021/08/22 04:17:42;;;;;;;26.15;20.42;;;17.90;99.90;;;;;;5056654;28;20020;-86
2021/08/22 04:20:08;;;;;;;30.67;23.40;;;17.90;99.90;;;;;;5056743;28;20047;-86
2021/08/22 04:22:37;;;;;;;34.25;27.25;;;17.90;99.90;;;;;;5056606;28;20021;-86
2021/08/22 04:25:06;;;;;;;34.35;27.10;;;17.90;99.90;;;;;;5056714;28;20045;-86
2021/08/22 04:27:34;;;;;;;30.85;24.50;;;17.80;99.90;;;;;;5056271;28;20111;-85
2021/08/22 04:30:00;;;;;;;38.47;29.25;;;17.70;99.90;;;;;;5056724;28;20044;-85
2021/08/22 04:32:26;;;;;;;35.75;26.90;;;17.70;99.90;;;;;;5074759;28;20024;-86
2021/08/22 04:34:52;;;;;;;36.38;28.55;;;17.60;99.90;;;;;;5057355;28;20079;-86
2021/08/22 04:37:18;;;;;;;41.55;31.08;;;17.60;99.90;;;;;;5057490;28;20401;-86
2021/08/22 04:39:44;;;;;;;40.97;30.92;;;17.60;99.90;;;;;;5075446;28;20074;-86
2021/08/22 04:42:10;;;;;;;40.28;29.45;;;17.60;99.90;;;;;;5056605;28;20024;-86
2021/08/22 04:44:36;;;;;;;35.30;27.83;;;17.60;99.90;;;;;;5052726;28;20075;-86
2021/08/22 04:47:01;;;;;;;38.17;29.00;;;17.60;99.90;;;;;;5053822;28;20373;-88
2021/08/22 04:49:27;;;;;;;38.50;29.33;;;17.60;99.90;;;;;;5053782;28;20017;-86
2021/08/22 04:51:52;;;;;;;44.92;33.78;;;17.60;99.90;;;;;;5053826;28;20120;-86
2021/08/22 04:54:21;;;;;;;39.92;30.88;;;17.50;99.90;;;;;;5053571;28;20392;-86
2021/08/22 04:56:47;;;;;;;33.45;26.63;;;17.50;99.90;;;;;;5054891;28;20029;-86
2021/08/22 04:59:13;;;;;;;29.63;25.05;;;17.50;99.90;;;;;;5053653;28;20021;-86
2021/08/22 05:01:38;;;;;;;42.90;32.85;;;17.60;99.90;;;;;;5053263;28;20045;-86
2021/08/22 05:04:04;;;;;;;46.25;34.10;;;17.60;99.90;;;;;;5053272;28;20074;-86
2021/08/22 05:06:30;;;;;;;40.92;31.35;;;17.60;99.90;;;;;;5053181;28;20028;-85
2021/08/22 05:08:57;;;;;;;49.15;34.45;;;17.60;99.90;;;;;;5053410;28;20053;-87
2021/08/22 05:11:22;;;;;;;51.90;36.72;;;17.60;99.90;;;;;;5052918;28;20020;-86
2021/08/22 05:13:48;;;;;;;44.92;32.58;;;17.70;99.90;;;;;;5053068;28;20108;-86
2021/08/22 05:16:14;;;;;;;39.72;30.08;;;17.70;99.90;;;;;;5036674;28;20034;-86
2021/08/22 05:18:39;;;;;;;38.28;28.70;;;17.80;99.90;;;;;;5053239;28;20382;-86
2021/08/22 05:21:05;;;;;;;44.53;32.47;;;17.80;99.90;;;;;;5053049;28;20029;-87
2021/08/22 05:23:31;;;;;;;42.15;31.77;;;17.80;99.90;;;;;;5052670;28;20035;-87
2021/08/22 05:25:57;;;;;;;40.25;29.77;;;17.80;99.90;;;;;;5054129;28;20033;-86
2021/08/22 05:28:23;;;;;;;49.00;35.42;;;17.80;99.90;;;;;;5052995;28;20472;-86
2021/08/22 05:30:48;;;;;;;46.95;32.63;;;17.80;99.90;;;;;;5054426;28;20025;-86
2021/08/22 05:33:14;;;;;;;41.17;30.90;;;17.80;99.90;;;;;;5052775;28;20025;-86
2021/08/22 05:35:40;;;;;;;46.03;31.95;;;17.80;99.90;;;;;;5052938;28;20086;-87
2021/08/22 05:38:07;;;;;;;46.75;33.38;;;17.80;99.90;;;;;;5053034;28;20116;-87
2021/08/22 05:40:33;;;;;;;44.22;32.80;;;17.90;99.90;;;;;;5052528;28;20028;-87
2021/08/22 05:42:59;;;;;;;45.38;33.60;;;17.90;99.90;;;;;;5052000;28;20083;-87
2021/08/22 05:45:24;;;;;;;48.70;34.65;;;18.00;99.90;;;;;;5052155;28;20483;-87
2021/08/22 05:47:50;;;;;;;50.72;36.85;;;18.00;99.90;;;;;;5052389;28;20027;-86
2021/08/22 05:50:16;;;;;;;51.40;36.83;;;18.00;99.90;;;;;;5052578;28;20017;-85
2021/08/22 05:52:41;;;;;;;52.55;36.45;;;18.00;99.90;;;;;;5052440;28;20120;-86
2021/08/22 05:55:09;;;;;;;51.05;33.78;;;18.00;99.90;;;;;;5052608;28;20068;-87
2021/08/22 05:57:35;;;;;;;45.95;31.67;;;18.00;99.90;;;;;;5053310;28;20043;-87
2021/08/22 06:00:02;;;;;;;47.47;31.38;;;18.10;99.90;;;;;;5052427;28;20025;-87
2021/08/22 06:02:28;;;;;;;53.90;35.25;;;18.10;99.90;;;;;;5052217;28;20369;-87
2021/08/22 06:04:55;;;;;;;50.95;35.58;;;18.20;99.90;;;;;;5052648;28;20036;-87
2021/08/22 06:07:20;;;;;;;52.08;35.72;;;18.20;99.90;;;;;;5052460;28;20025;-87
2021/08/22 06:09:52;;;;;;;51.78;34.55;;;18.20;99.90;;;;;;5052193;28;20032;-87
2021/08/22 06:12:20;;;;;;;52.70;35.70;;;18.30;99.90;;;;;;5052289;28;20032;-87
2021/08/22 06:14:46;;;;;;;53.10;38.83;;;18.30;99.90;;;;;;5053571;28;20053;-88
2021/08/22 06:17:12;;;;;;;48.17;34.15;;;18.40;99.90;;;;;;5052312;28;20013;-88
2021/08/22 06:19:37;;;;;;;46.38;32.92;;;18.40;99.90;;;;;;5051971;28;20025;-89
2021/08/22 06:22:04;;;;;;;41.50;31.52;;;18.40;99.90;;;;;;5051847;28;20381;-87
2021/08/22 06:24:31;;;;;;;45.28;33.25;;;18.50;99.90;;;;;;5051405;28;20037;-87
2021/08/22 06:26:56;;;;;;;43.50;31.98;;;18.50;99.90;;;;;;5052687;28;20037;-88
2021/08/22 06:29:22;;;;;;;45.38;32.05;;;18.50;99.90;;;;;;5052308;28;20491;-88
2021/08/22 06:31:48;;;;;;;44.60;32.70;;;18.50;99.90;;;;;;5052213;28;20137;-88
2021/08/22 06:34:14;;;;;;;46.50;32.88;;;18.50;99.90;;;;;;5053565;28;20017;-89
2021/08/22 06:36:40;;;;;;;42.80;30.42;;;18.60;99.90;;;;;;5053510;28;20040;-89
2021/08/22 06:39:07;;;;;;;42.22;31.90;;;18.50;99.90;;;;;;5052027;28;20025;-89
2021/08/22 06:41:33;;;;;;;41.88;30.67;;;18.50;99.90;;;;;;5052106;28;20032;-88
2021/08/22 06:43:59;;;;;;;39.67;30.05;;;18.50;99.90;;;;;;5060559;28;20092;-88
2021/08/22 06:46:24;;;;;;;37.92;27.58;;;18.50;99.90;;;;;;5038877;28;20067;-87
2021/08/22 06:48:50;;;;;;;48.72;34.00;;;18.60;99.90;;;;;;5055413;28;20064;-88
2021/08/22 06:51:16;;;;;;;39.90;29.40;;;18.60;99.90;;;;;;5055067;28;20050;-86
2021/08/22 06:53:41;;;;;;;37.97;28.55;;;18.70;99.90;;;;;;5054867;28;20032;-88
2021/08/22 06:56:07;;;;;;;37.35;26.42;;;18.60;99.90;;;;;;5055483;28;20029;-88
2021/08/22 06:58:33;;;;;;;37.88;27.65;;;18.60;99.90;;;;;;5055215;28;20060;-88
2021/08/22 07:01:00;;;;;;;45.35;33.88;;;18.60;99.90;;;;;;5055255;28;20456;-89
2021/08/22 07:03:25;;;;;;;43.10;31.90;;;18.60;99.90;;;;;;5055063;28;20138;-87
2021/08/22 07:05:51;;;;;;;39.05;28.95;;;18.50;99.90;;;;;;5058968;28;20082;-88
2021/08/22 07:08:17;;;;;;;40.97;30.08;;;18.50;99.90;;;;;;5058816;28;20024;-88
2021/08/22 07:10:43;;;;;;;39.15;29.60;;;18.50;99.90;;;;;;5058616;28;20020;-85
2021/08/22 07:13:09;;;;;;;42.22;31.45;;;18.40;99.90;;;;;;5058749;28;20036;-87
2021/08/22 07:15:35;;;;;;;40.35;29.73;;;18.40;99.90;;;;;;5058779;28;20480;-87
2021/08/22 07:18:01;;;;;;;38.03;29.20;;;18.40;99.90;;;;;;5058652;28;20032;-87
2021/08/22 07:20:27;;;;;;;40.95;30.27;;;18.40;99.90;;;;;;5058567;28;20077;-86
2021/08/22 07:22:52;;;;;;;39.17;30.38;;;18.30;99.90;;;;;;5058431;28;20115;-86
2021/08/22 07:25:20;;;;;;;38.53;30.23;;;18.30;99.90;;;;;;5058631;28;20036;-86
2021/08/22 07:27:46;;;;;;;42.67;32.33;;;18.40;99.90;;;;;;5058488;28;20472;-87
2021/08/22 07:30:12;;;;;;;43.38;33.67;;;18.30;99.90;;;;;;5058453;28;20035;-87
2021/08/22 07:32:38;;;;;;;43.55;34.88;;;18.40;99.90;;;;;;5058372;28;20029;-87
2021/08/22 07:35:06;;;;;;;35.50;29.83;;;18.30;99.90;;;;;;5058368;28;20016;-88
2021/08/22 07:37:32;;;;;;;43.65;32.53;;;18.30;99.90;;;;;;5041720;28;20028;-87
2021/08/22 07:39:58;;;;;;;35.58;29.23;;;18.40;99.90;;;;;;5058044;28;20032;-88
2021/08/22 07:42:24;;;;;;;32.28;27.02;;;18.40;99.90;;;;;;5058166;28;20024;-87
2021/08/22 07:44:49;;;;;;;33.35;26.65;;;18.40;99.90;;;;;;5058077;28;20392;-86
2021/08/22 07:47:15;;;;;;;29.55;24.40;;;18.50;99.90;;;;;;5058130;28;20383;-85
2021/08/22 07:49:40;;;;;;;33.53;27.08;;;18.50;99.90;;;;;;5058153;28;20115;-86
2021/08/22 07:52:09;;;;;;;33.13;26.98;;;18.60;99.90;;;;;;5075618;28;20073;-86
2021/08/22 07:54:35;;;;;;;32.25;25.10;;;18.70;99.90;;;;;;5075751;28;20151;-86
2021/08/22 07:57:01;;;;;;;31.92;25.27;;;18.70;99.90;;;;;;5057533;28;20064;-85
2021/08/22 07:59:27;;;;;;;28.02;23.15;;;18.80;99.90;;;;;;5057692;28;20016;-86
2021/08/22 08:01:53;;;;;;;30.50;25.70;;;18.90;99.90;;;;;;5057723;28;20039;-86
2021/08/22 08:04:19;;;;;;;30.95;25.17;;;19.00;99.90;;;;;;5057449;28;20032;-86
2021/08/22 08:06:45;;;;;;;31.52;25.45;;;19.20;99.90;;;;;;5057047;28;20036;-86
2021/08/22 08:09:10;;;;;;;31.38;25.92;;;19.20;99.90;;;;;;5057049;28;20021;-86
2021/08/22 08:11:36;;;;;;;28.95;23.58;;;19.30;99.90;;;;;;5057004;28;20116;-85
2021/08/22 08:14:02;;;;;;;32.65;27.65;;;19.40;99.90;;;;;;5056277;28;20032;-86
2021/08/22 08:16:27;;;;;;;33.35;28.15;;;19.40;99.90;;;;;;5038172;28;20369;-86
2021/08/22 08:18:54;;;;;;;33.28;27.67;;;19.30;99.90;;;;;;5056800;28;20020;-86
2021/08/22 08:21:20;;;;;;;30.35;27.08;;;19.40;99.90;;;;;;5056771;28;20376;-87
2021/08/22 08:23:46;;;;;;;27.48;23.80;;;19.40;99.90;;;;;;5040032;28;20051;-85
2021/08/22 08:26:12;;;;;;;28.58;24.50;;;19.50;99.90;;;;;;5040091;28;20046;-87
2021/08/22 08:28:38;;;;;;;30.23;25.77;;;19.60;99.90;;;;;;5074557;28;20059;-86
2021/08/22 08:31:03;;;;;;;27.92;23.75;;;19.80;99.90;;;;;;5057172;28;20021;-86
2021/08/22 08:33:29;;;;;;;27.58;23.30;;;19.80;99.90;;;;;;5057391;28;20028;-88
2021/08/22 08:35:55;;;;;;;30.05;25.05;;;19.90;99.90;;;;;;5057356;28;20032;-87
2021/08/22 08:38:21;;;;;;;26.88;22.42;;;20.00;99.90;;;;;;5040438;28;20021;-88
2021/08/22 08:40:47;;;;;;;25.67;23.00;;;20.10;99.90;;;;;;5056900;28;20139;-89
2021/08/22 08:43:14;;;;;;;25.23;22.13;;;20.10;99.90;;;;;;5056934;28;20031;-86
2021/08/22 08:45:46;;;;;;;24.00;21.48;;;20.10;99.90;;;;;;5057142;28;20024;-87
2021/08/22 08:48:32;;;;;;;21.23;18.95;;;20.00;99.90;;;;;;5072446;28;20109;-86
2021/08/22 08:51:18;;;;;;;22.70;19.73;;;20.00;99.90;;;;;;5056833;28;20472;-86
2021/08/22 08:53:49;;;;;;;22.95;20.45;;;20.00;99.90;;;;;;5042556;28;20472;-85
2021/08/22 08:56:17;;;;;;;24.20;20.00;;;20.00;99.90;;;;;;5056850;28;20029;-86
2021/08/22 08:58:42;;;;;;;22.17;19.75;;;19.90;99.90;;;;;;5074705;28;20317;-87
2021/08/22 09:01:08;;;;;;;28.55;24.60;;;19.90;99.90;;;;;;5056773;28;20021;-86
2021/08/22 09:03:36;;;;;;;24.38;21.98;;;19.90;99.90;;;;;;5074127;28;20027;-86
2021/08/22 09:06:04;;;;;;;24.20;21.73;;;20.00;99.90;;;;;;5074331;28;20469;-87
2021/08/22 09:08:52;;;;;;;23.20;20.30;;;20.10;99.90;;;;;;5074194;28;20024;-86
2021/08/22 09:11:39;;;;;;;24.58;22.00;;;20.20;99.90;;;;;;5056431;28;20020;-87
2021/08/22 09:14:36;;;;;;;26.08;22.58;;;20.30;99.90;;;;;;5056313;28;20036;-87
2021/08/22 09:17:39;;;;;;;27.67;24.83;;;20.30;99.90;;;;;;5055838;28;20020;-87
2021/08/22 09:20:39;;;;;;;22.52;20.23;;;20.20;99.90;;;;;;5056356;28;20036;-88
2021/08/22 09:23:18;;;;;;;30.05;26.88;;;20.20;99.90;;;;;;5036100;28;20048;-87
2021/08/22 09:26:17;;;;;;;25.50;22.80;;;20.30;99.90;;;;;;5071196;28;20496;-87
2021/08/22 09:29:21;;;;;;;23.30;20.80;;;20.40;99.90;;;;;;5056088;28;20024;-87
2021/08/22 09:32:25;;;;;;;25.63;23.02;;;20.60;99.90;;;;;;5073982;28;20100;-87
2021/08/22 09:35:15;;;;;;;24.60;22.15;;;20.60;99.90;;;;;;5056142;28;20039;-87
2021/08/22 09:38:19;;;;;;;26.05;21.70;;;20.70;99.90;;;;;;5056033;28;20036;-86
2021/08/22 09:41:22;;;;;;;20.85;18.58;;;20.80;99.90;;;;;;5016554;28;20126;-86
2021/08/22 09:44:25;;;;;;;21.70;19.50;;;20.90;99.90;;;;;;5053545;28;20052;-87
2021/08/22 09:47:10;;;;;;;;;;;20.90;99.90;;;;;;5054099;28;20025;-87
2021/08/22 09:50:06;;;;;;;19.30;17.08;;;20.90;99.90;;;;;;5053560;28;19958;-87
2021/08/22 09:53:05;;;;;;;25.08;20.20;;;21.00;99.90;;;;;;5053100;28;20131;-87
2021/08/22 09:55:56;;;;;;;21.40;19.17;;;20.90;99.90;;;;;;5053692;28;20452;-87
2021/08/22 09:58:40;;;;;;;21.83;19.38;;;20.80;99.90;;;;;;5040197;28;20024;-87
2021/08/22 10:01:43;;;;;;;20.35;18.35;;;20.70;99.90;;;;;;5053729;28;20025;-87
2021/08/22 10:04:47;;;;;;;19.52;17.50;;;20.80;99.90;;;;;;5054343;28;20029;-88
2021/08/22 10:07:24;;;;;;;22.17;19.88;;;20.80;99.90;;;;;;5053436;28;20464;-87
2021/08/22 10:10:13;;;;;;;20.90;18.85;;;20.70;99.90;;;;;;5071672;28;20012;-87
2021/08/22 10:12:39;;;;;;;19.67;17.63;;;20.60;99.90;;;;;;5054103;28;20017;-86
2021/08/22 10:15:06;;;;;;;18.88;16.92;;;20.60;99.90;;;;;;5054304;28;20028;-88
2021/08/22 10:17:33;;;;;;;18.40;16.65;;;20.60;99.90;;;;;;5072324;28;20091;-87
2021/08/22 10:20:02;;;;;;;18.63;16.80;;;20.60;99.90;;;;;;5056100;28;20416;-87
2021/08/22 10:22:31;;;;;;;17.83;15.82;;;20.50;99.90;;;;;;5053866;28;20021;-87
2021/08/22 10:25:01;;;;;;;18.50;16.60;;;20.40;99.90;;;;;;5054273;28;20052;-89
2021/08/22 10:27:30;;;;;;;21.80;19.60;;;20.40;99.90;;;;;;5051805;28;20028;-87
2021/08/22 10:30:05;;;;;;;20.23;17.90;;;20.30;99.90;;;;;;5071259;28;20051;-89
2021/08/22 10:32:32;;;;;;;19.73;17.73;;;20.20;99.90;;;;;;5051780;28;20027;-89
2021/08/22 10:35:10;;;;;;;21.33;19.10;;;20.30;99.90;;;;;;5036639;28;20041;-88
2021/08/22 10:37:36;;;;;;;22.67;20.25;;;20.30;99.90;;;;;;5051539;28;20515;-88
2021/08/22 10:40:38;;;;;;;20.58;18.42;;;20.20;99.90;;;;;;5055511;28;20056;-88
2021/08/22 10:43:09;;;;;;;19.23;17.23;;;20.20;99.90;;;;;;4956387;28;20043;-87
2021/08/22 10:45:44;;;;;;;20.00;17.60;;;20.10;99.90;;;;;;5037137;28;20060;-88
2021/08/22 10:48:25;;;;;;;21.08;18.48;;;20.20;99.90;;;;;;5057049;28;20020;-89
2021/08/22 10:51:04;;;;;;;19.27;17.27;;;20.20;99.90;;;;;;5056815;28;20016;-89
2021/08/22 10:53:47;;;;;;;18.40;16.10;;;20.30;99.90;;;;;;5074309;28;20032;-89
2021/08/22 10:56:25;;;;;;;17.33;15.10;;;20.30;99.90;;;;;;5053949;28;20055;-88
2021/08/22 10:59:02;;;;;;;15.52;13.93;;;20.40;99.90;;;;;;5074804;28;20103;-87
2021/08/22 11:01:34;;;;;;;16.67;14.98;;;20.60;99.90;;;;;;5057869;28;20107;-87
2021/08/22 11:04:18;;;;;;;17.08;15.20;;;20.80;99.90;;;;;;5057573;28;20460;-88
2021/08/22 11:07:02;;;;;;;14.77;13.18;;;20.80;99.90;;;;;;5056731;28;20044;-89
2021/08/22 11:09:45;;;;;;;17.30;15.50;;;20.80;99.90;;;;;;5057120;28;20025;-87
2021/08/22 11:12:27;;;;;;;17.77;15.80;;;20.90;99.90;;;;;;5057052;28;20016;-88
2021/08/22 11:14:53;;;;;;;17.90;16.20;;;20.90;99.90;;;;;;5055412;28;20029;-87
2021/08/22 11:17:19;;;;;;;16.83;14.63;;;20.80;99.90;;;;;;5055988;28;20116;-89
2021/08/22 11:19:45;;;;;;;20.00;18.00;;;20.80;99.90;;;;;;5055576;28;20107;-90
2021/08/22 11:22:30;;;;;;;19.88;17.88;;;20.70;99.90;;;;;;5055631;28;20013;-88
2021/08/22 11:24:59;;;;;;;19.60;17.63;;;20.60;99.90;;;;;;5055359;28;20028;-87
2021/08/22 11:27:28;;;;;;;21.17;19.02;;;20.60;99.90;;;;;;5055618;28;20067;-89
2021/08/22 11:29:53;;;;;;;19.55;17.63;;;20.60;99.90;;;;;;5056035;28;20086;-87
2021/08/22 11:32:21;;;;;;;20.58;18.58;;;20.70;99.90;;;;;;5056621;28;20016;-90
2021/08/22 11:34:46;;;;;;;19.08;17.17;;;21.10;99.90;;;;;;5056116;28;20074;-88
2021/08/22 11:37:16;;;;;;;20.73;18.83;;;21.50;99.90;;;;;;5074468;28;20025;-88
2021/08/22 11:39:42;;;;;;;19.02;17.23;;;21.90;99.90;;;;;;5056454;28;20025;-89
2021/08/22 11:42:09;;;;;;;18.60;16.75;;;22.70;99.90;;;;;;5056202;28;20020;-88
2021/08/22 11:44:36;;;;;;;18.73;15.10;;;23.10;99.90;;;;;;5052494;28;20057;-88
2021/08/22 11:47:02;;;;;;;16.10;14.50;;;22.90;99.90;;;;;;5053176;28;20028;-88
2021/08/22 11:49:29;;;;;;;15.98;14.38;;;22.70;99.90;;;;;;5036162;28;20024;-87
2021/08/22 11:51:56;;;;;;;16.60;14.95;;;22.50;99.90;;;;;;5053266;28;20071;-88
2021/08/22 11:54:22;;;;;;;16.35;14.80;;;22.50;99.90;;;;;;5052940;28;20021;-90
2021/08/22 11:56:49;;;;;;;15.27;13.77;;;22.90;99.90;;;;;;5054383;28;20424;-88
2021/08/22 11:59:29;;;;;;;13.27;11.98;;;23.90;99.90;;;;;;5047958;28;20462;-88
2021/08/22 12:02:20;;;;;;;13.80;12.55;;;24.50;99.90;;;;;;5036860;28;20040;-89
2021/08/22 12:04:46;;;;;;;15.25;13.75;;;24.80;99.90;;;;;;5038589;28;20031;-88
2021/08/22 12:07:12;;;;;;;14.50;13.00;;;24.60;99.90;;;;;;5042404;28;20021;-87
2021/08/22 12:09:49;;;;;;;14.55;13.07;;;24.70;99.90;;;;;;5047984;28;20523;-89
2021/08/22 12:12:20;;;;;;;14.80;13.30;;;25.70;99.90;;;;;;5045267;28;20102;-90
2021/08/22 12:14:46;;;;;;;12.60;11.40;;;26.50;99.90;;;;;;5036741;28;20064;-90
2021/08/22 12:17:22;;;;;;;13.43;12.13;;;26.40;99.90;;;;;;5032957;28;20053;-91
2021/08/22 12:19:49;;;;;;;14.00;12.57;;;26.00;99.90;;;;;;5038532;28;20475;-89
2021/08/22 12:22:14;;;;;;;13.32;12.02;;;25.60;99.90;;;;;;5041528;28;20053;-89
2021/08/22 12:24:45;;;;;;;11.32;10.23;;;25.70;99.90;;;;;;5043341;28;20064;-90
2021/08/22 12:27:11;;;;;;;11.48;10.27;;;26.00;99.90;;;;;;5037440;28;20461;-91
2021/08/22 12:29:39;;;;;;;12.50;11.07;;;26.30;99.90;;;;;;5036958;28;20051;-89
2021/08/22 12:32:17;;;;;;;11.23;9.95;;;26.70;99.90;;;;;;5023559;28;20053;-88
2021/08/22 12:34:43;;;;;;;11.60;10.40;;;26.70;99.90;;;;;;5040587;28;20031;-89
2021/08/22 12:37:14;;;;;;;11.35;10.15;;;26.50;99.90;;;;;;5043666;28;20412;-88
2021/08/22 12:39:41;;;;;;;11.82;9.38;;;26.20;99.90;;;;;;5050675;28;20029;-90
2021/08/22 12:42:07;;;;;;;10.13;8.15;;;26.20;99.90;;;;;;5041474;28;20025;-91